sensor_id;sensor_type;location;lat;lon;timestamp;P1;durP1;ratioP1;P2;durP2;ratioP2
84315;SDS011;74496;52.236;5.164;2024-01-15T00:00:51;8.02;;;1.80;;
84315;SDS011;74496;52.236;5.164;2024-01-15T00:03:18;7.13;;;1.65;;
84315;SDS011;74496;52.236;5.164;2024-01-15T00:05:46;12.07;;;1.45;;
84315;SDS011;74496;52.236;5.164;2024-01-15T00:08:12;9.55;;;1.90;;
84315;SDS011;74496;52.236;5.164;2024-01-15T00:10:39;8.18;;;1.60;;
84315;SDS011;74496;52.236;5.164;2024-01-15T00:13:06;10.07;;;1.50;;
84315;SDS011;74496;52.236;5.164;2024-01-15T00:15:33;8.27;;;1.75;;
84315;SDS011;74496;52.236;5.164;2024-01-15T00:18:00;4.78;;;1.73;;
84315;SDS011;74496;52.236;5.164;2024-01-15T00:20:26;6.15;;;1.77;;
84315;SDS011;74496;52.236;5.164;2024-01-15T00:22:54;6.03;;;1.95;;
84315;SDS011;74496;52.236;5.164;2024-01-15T00:25:21;6.38;;;1.90;;
84315;SDS011;74496;52.236;5.164;2024-01-15T00:27:48;8.73;;;1.90;;
84315;SDS011;74496;52.236;5.164;2024-01-15T00:30:14;4.75;;;1.45;;
84315;SDS011;74496;52.236;5.164;2024-01-15T00:32:41;11.90;;;2.03;;
84315;SDS011;74496;52.236;5.164;2024-01-15T00:35:08;7.40;;;1.40;;
84315;SDS011;74496;52.236;5.164;2024-01-15T00:37:35;11.23;;;2.05;;
84315;SDS011;74496;52.236;5.164;2024-01-15T00:40:04;11.32;;;1.48;;
84315;SDS011;74496;52.236;5.164;2024-01-15T00:42:33;8.20;;;1.58;;
84315;SDS011;74496;52.236;5.164;2024-01-15T00:44:59;11.32;;;1.92;;
84315;SDS011;74496;52.236;5.164;2024-01-15T00:47:26;12.00;;;1.63;;
84315;SDS011;74496;52.236;5.164;2024-01-15T00:49:53;10.43;;;1.77;;
84315;SDS011;74496;52.236;5.164;2024-01-15T00:52:19;8.82;;;1.55;;
84315;SDS011;74496;52.236;5.164;2024-01-15T00:54:46;14.38;;;2.58;;
84315;SDS011;74496;52.236;5.164;2024-01-15T00:57:14;10.02;;;1.65;;
84315;SDS011;74496;52.236;5.164;2024-01-15T00:59:41;13.63;;;1.67;;
84315;SDS011;74496;52.236;5.164;2024-01-15T01:02:07;11.00;;;1.23;;
84315;SDS011;74496;52.236;5.164;2024-01-15T01:04:33;15.73;;;1.88;;
84315;SDS011;74496;52.236;5.164;2024-01-15T01:07:00;9.18;;;1.42;;
84315;SDS011;74496;52.236;5.164;2024-01-15T01:09:27;6.15;;;1.80;;
84315;SDS011;74496;52.236;5.164;2024-01-15T01:11:55;10.27;;;1.43;;
84315;SDS011;74496;52.236;5.164;2024-01-15T01:14:23;10.77;;;1.90;;
84315;SDS011;74496;52.236;5.164;2024-01-15T01:16:50;7.38;;;1.38;;
84315;SDS011;74496;52.236;5.164;2024-01-15T01:19:16;9.48;;;1.33;;
84315;SDS011;74496;52.236;5.164;2024-01-15T01:21:43;11.13;;;1.70;;
84315;SDS011;74496;52.236;5.164;2024-01-15T01:24:10;6.17;;;1.10;;
84315;SDS011;74496;52.236;5.164;2024-01-15T01:26:36;9.30;;;1.20;;
84315;SDS011;74496;52.236;5.164;2024-01-15T01:29:03;7.72;;;1.17;;
84315;SDS011;74496;52.236;5.164;2024-01-15T01:31:31;6.00;;;1.20;;
84315;SDS011;74496;52.236;5.164;2024-01-15T01:33:58;7.53;;;1.60;;
84315;SDS011;74496;52.236;5.164;2024-01-15T01:36:25;10.93;;;2.03;;
84315;SDS011;74496;52.236;5.164;2024-01-15T01:38:52;7.93;;;1.40;;
84315;SDS011;74496;52.236;5.164;2024-01-15T01:41:18;8.68;;;1.48;;
84315;SDS011;74496;52.236;5.164;2024-01-15T01:43:45;13.75;;;1.58;;
84315;SDS011;74496;52.236;5.164;2024-01-15T01:46:12;9.45;;;1.60;;
84315;SDS011;74496;52.236;5.164;2024-01-15T01:48:40;15.57;;;1.70;;
84315;SDS011;74496;52.236;5.164;2024-01-15T01:51:07;5.57;;;0.98;;
84315;SDS011;74496;52.236;5.164;2024-01-15T01:53:34;8.52;;;1.45;;
84315;SDS011;74496;52.236;5.164;2024-01-15T01:56:03;10.15;;;1.35;;
84315;SDS011;74496;52.236;5.164;2024-01-15T01:58:31;16.95;;;1.60;;
84315;SDS011;74496;52.236;5.164;2024-01-15T02:00:59;6.93;;;1.37;;
84315;SDS011;74496;52.236;5.164;2024-01-15T02:03:26;6.90;;;1.38;;
84315;SDS011;74496;52.236;5.164;2024-01-15T02:05:55;7.47;;;1.23;;
84315;SDS011;74496;52.236;5.164;2024-01-15T02:08:22;5.10;;;1.02;;
84315;SDS011;74496;52.236;5.164;2024-01-15T02:10:49;3.90;;;0.70;;
84315;SDS011;74496;52.236;5.164;2024-01-15T02:13:16;2.37;;;0.60;;
84315;SDS011;74496;52.236;5.164;2024-01-15T02:15:43;3.20;;;0.70;;
84315;SDS011;74496;52.236;5.164;2024-01-15T02:18:10;2.97;;;0.80;;
84315;SDS011;74496;52.236;5.164;2024-01-15T02:20:39;2.50;;;0.60;;
84315;SDS011;74496;52.236;5.164;2024-01-15T02:23:10;3.65;;;0.80;;
84315;SDS011;74496;52.236;5.164;2024-01-15T02:25:39;7.23;;;0.73;;
84315;SDS011;74496;52.236;5.164;2024-01-15T02:28:08;2.72;;;0.70;;
84315;SDS011;74496;52.236;5.164;2024-01-15T02:30:37;3.40;;;0.73;;
84315;SDS011;74496;52.236;5.164;2024-01-15T02:33:05;3.97;;;1.13;;
84315;SDS011;74496;52.236;5.164;2024-01-15T02:35:32;3.03;;;0.80;;
84315;SDS011;74496;52.236;5.164;2024-01-15T02:38:01;3.43;;;0.97;;
84315;SDS011;74496;52.236;5.164;2024-01-15T02:40:30;2.65;;;0.93;;
84315;SDS011;74496;52.236;5.164;2024-01-15T02:42:57;7.90;;;1.10;;
84315;SDS011;74496;52.236;5.164;2024-01-15T02:45:24;7.20;;;1.20;;
84315;SDS011;74496;52.236;5.164;2024-01-15T02:47:51;5.22;;;0.90;;
84315;SDS011;74496;52.236;5.164;2024-01-15T02:50:17;5.63;;;0.93;;
84315;SDS011;74496;52.236;5.164;2024-01-15T02:52:44;10.40;;;1.38;;
84315;SDS011;74496;52.236;5.164;2024-01-15T02:55:11;7.38;;;1.00;;
84315;SDS011;74496;52.236;5.164;2024-01-15T02:57:39;3.22;;;1.02;;
84315;SDS011;74496;52.236;5.164;2024-01-15T03:00:06;5.55;;;0.90;;
84315;SDS011;74496;52.236;5.164;2024-01-15T03:02:37;10.07;;;1.03;;
84315;SDS011;74496;52.236;5.164;2024-01-15T03:05:05;3.97;;;0.90;;
84315;SDS011;74496;52.236;5.164;2024-01-15T03:07:33;6.65;;;0.98;;
84315;SDS011;74496;52.236;5.164;2024-01-15T03:10:00;5.53;;;1.08;;
84315;SDS011;74496;52.236;5.164;2024-01-15T03:12:26;6.95;;;1.10;;
84315;SDS011;74496;52.236;5.164;2024-01-15T03:14:57;4.27;;;1.00;;
84315;SDS011;74496;52.236;5.164;2024-01-15T03:17:24;10.38;;;1.10;;
84315;SDS011;74496;52.236;5.164;2024-01-15T03:19:50;7.05;;;1.20;;
84315;SDS011;74496;52.236;5.164;2024-01-15T03:22:17;4.35;;;0.90;;
84315;SDS011;74496;52.236;5.164;2024-01-15T03:24:44;2.80;;;0.75;;
84315;SDS011;74496;52.236;5.164;2024-01-15T03:27:11;3.13;;;1.10;;
84315;SDS011;74496;52.236;5.164;2024-01-15T03:29:37;3.90;;;0.77;;
84315;SDS011;74496;52.236;5.164;2024-01-15T03:32:07;5.70;;;1.10;;
84315;SDS011;74496;52.236;5.164;2024-01-15T03:34:33;6.57;;;1.20;;
84315;SDS011;74496;52.236;5.164;2024-01-15T03:37:00;7.55;;;1.40;;
84315;SDS011;74496;52.236;5.164;2024-01-15T03:39:27;8.17;;;0.90;;
84315;SDS011;74496;52.236;5.164;2024-01-15T03:41:53;2.25;;;0.80;;
84315;SDS011;74496;52.236;5.164;2024-01-15T03:44:20;6.10;;;1.05;;
84315;SDS011;74496;52.236;5.164;2024-01-15T03:46:46;5.60;;;0.90;;
84315;SDS011;74496;52.236;5.164;2024-01-15T03:49:14;5.50;;;1.02;;
84315;SDS011;74496;52.236;5.164;2024-01-15T03:51:41;6.33;;;1.07;;
84315;SDS011;74496;52.236;5.164;2024-01-15T03:54:08;5.82;;;0.85;;
84315;SDS011;74496;52.236;5.164;2024-01-15T03:56:34;6.97;;;1.23;;
84315;SDS011;74496;52.236;5.164;2024-01-15T03:59:01;2.03;;;0.80;;
84315;SDS011;74496;52.236;5.164;2024-01-15T04:01:28;4.00;;;1.08;;
84315;SDS011;74496;52.236;5.164;2024-01-15T04:03:55;1.80;;;0.90;;
84315;SDS011;74496;52.236;5.164;2024-01-15T04:06:23;4.63;;;0.90;;
84315;SDS011;74496;52.236;5.164;2024-01-15T04:08:50;3.88;;;1.20;;
84315;SDS011;74496;52.236;5.164;2024-01-15T04:11:16;6.70;;;1.10;;
84315;SDS011;74496;52.236;5.164;2024-01-15T04:13:43;3.78;;;0.70;;
84315;SDS011;74496;52.236;5.164;2024-01-15T04:16:10;2.47;;;0.80;;
84315;SDS011;74496;52.236;5.164;2024-01-15T04:18:37;6.15;;;1.10;;
84315;SDS011;74496;52.236;5.164;2024-01-15T04:21:04;8.65;;;1.13;;
84315;SDS011;74496;52.236;5.164;2024-01-15T04:23:33;2.33;;;0.70;;
84315;SDS011;74496;52.236;5.164;2024-01-15T04:26:00;5.43;;;0.90;;
84315;SDS011;74496;52.236;5.164;2024-01-15T04:28:27;3.33;;;0.80;;
84315;SDS011;74496;52.236;5.164;2024-01-15T04:30:53;4.53;;;1.00;;
84315;SDS011;74496;52.236;5.164;2024-01-15T04:33:20;1.38;;;0.70;;
84315;SDS011;74496;52.236;5.164;2024-01-15T04:35:47;1.70;;;0.80;;
84315;SDS011;74496;52.236;5.164;2024-01-15T04:38:14;3.72;;;0.85;;
84315;SDS011;74496;52.236;5.164;2024-01-15T04:40:42;7.03;;;1.00;;
84315;SDS011;74496;52.236;5.164;2024-01-15T04:43:09;3.83;;;0.70;;
84315;SDS011;74496;52.236;5.164;2024-01-15T04:45:36;3.53;;;0.82;;
84315;SDS011;74496;52.236;5.164;2024-01-15T04:48:03;2.97;;;0.75;;
84315;SDS011;74496;52.236;5.164;2024-01-15T04:50:30;3.85;;;0.80;;
84315;SDS011;74496;52.236;5.164;2024-01-15T04:52:57;1.07;;;0.70;;
84315;SDS011;74496;52.236;5.164;2024-01-15T04:55:23;4.85;;;0.90;;
84315;SDS011;74496;52.236;5.164;2024-01-15T04:57:51;2.80;;;0.80;;
84315;SDS011;74496;52.236;5.164;2024-01-15T05:00:18;6.60;;;0.70;;
84315;SDS011;74496;52.236;5.164;2024-01-15T05:02:45;2.67;;;0.73;;
84315;SDS011;74496;52.236;5.164;2024-01-15T05:05:12;5.13;;;0.70;;
84315;SDS011;74496;52.236;5.164;2024-01-15T05:07:38;2.97;;;0.77;;
84315;SDS011;74496;52.236;5.164;2024-01-15T05:10:05;5.75;;;0.95;;
84315;SDS011;74496;52.236;5.164;2024-01-15T05:12:34;3.60;;;0.70;;
84315;SDS011;74496;52.236;5.164;2024-01-15T05:15:02;2.83;;;1.00;;
84315;SDS011;74496;52.236;5.164;2024-01-15T05:17:29;8.47;;;1.23;;
84315;SDS011;74496;52.236;5.164;2024-01-15T05:19:56;2.58;;;0.80;;
84315;SDS011;74496;52.236;5.164;2024-01-15T05:22:23;2.13;;;0.70;;
84315;SDS011;74496;52.236;5.164;2024-01-15T05:24:50;1.95;;;0.80;;
84315;SDS011;74496;52.236;5.164;2024-01-15T05:27:17;6.70;;;1.30;;
84315;SDS011;74496;52.236;5.164;2024-01-15T05:29:44;7.87;;;0.90;;
84315;SDS011;74496;52.236;5.164;2024-01-15T05:32:12;6.47;;;0.90;;
84315;SDS011;74496;52.236;5.164;2024-01-15T05:34:38;3.72;;;1.05;;
84315;SDS011;74496;52.236;5.164;2024-01-15T05:37:04;3.87;;;0.80;;
84315;SDS011;74496;52.236;5.164;2024-01-15T05:39:31;3.20;;;0.80;;
84315;SDS011;74496;52.236;5.164;2024-01-15T05:41:58;8.02;;;1.25;;
84315;SDS011;74496;52.236;5.164;2024-01-15T05:44:25;5.45;;;0.90;;
84315;SDS011;74496;52.236;5.164;2024-01-15T05:46:51;1.35;;;0.75;;
84315;SDS011;74496;52.236;5.164;2024-01-15T05:49:20;7.03;;;1.38;;
84315;SDS011;74496;52.236;5.164;2024-01-15T05:51:47;5.00;;;1.10;;
84315;SDS011;74496;52.236;5.164;2024-01-15T05:54:14;4.43;;;1.00;;
84315;SDS011;74496;52.236;5.164;2024-01-15T05:56:40;4.13;;;1.15;;
84315;SDS011;74496;52.236;5.164;2024-01-15T05:59:07;3.53;;;1.00;;
84315;SDS011;74496;52.236;5.164;2024-01-15T06:01:34;5.00;;;1.17;;
84315;SDS011;74496;52.236;5.164;2024-01-15T06:04:00;2.20;;;0.80;;
84315;SDS011;74496;52.236;5.164;2024-01-15T06:06:28;3.38;;;1.00;;
84315;SDS011;74496;52.236;5.164;2024-01-15T06:08:55;5.22;;;0.90;;
84315;SDS011;74496;52.236;5.164;2024-01-15T06:11:29;5.57;;;1.13;;
84315;SDS011;74496;52.236;5.164;2024-01-15T06:13:55;3.20;;;1.10;;
84315;SDS011;74496;52.236;5.164;2024-01-15T06:16:23;2.35;;;1.00;;
84315;SDS011;74496;52.236;5.164;2024-01-15T06:18:50;2.72;;;1.08;;
84315;SDS011;74496;52.236;5.164;2024-01-15T06:21:17;5.82;;;1.33;;
84315;SDS011;74496;52.236;5.164;2024-01-15T06:23:45;12.52;;;1.42;;
84315;SDS011;74496;52.236;5.164;2024-01-15T06:26:11;5.20;;;1.10;;
84315;SDS011;74496;52.236;5.164;2024-01-15T06:28:38;3.05;;;1.02;;
84315;SDS011;74496;52.236;5.164;2024-01-15T06:31:05;13.85;;;2.08;;
84315;SDS011;74496;52.236;5.164;2024-01-15T06:33:36;4.65;;;1.50;;
84315;SDS011;74496;52.236;5.164;2024-01-15T06:36:03;7.65;;;1.48;;
84315;SDS011;74496;52.236;5.164;2024-01-15T06:38:30;7.85;;;1.10;;
84315;SDS011;74496;52.236;5.164;2024-01-15T06:40:58;4.47;;;1.48;;
84315;SDS011;74496;52.236;5.164;2024-01-15T06:43:25;9.35;;;1.70;;
84315;SDS011;74496;52.236;5.164;2024-01-15T06:45:52;3.53;;;1.10;;
84315;SDS011;74496;52.236;5.164;2024-01-15T06:48:20;4.75;;;1.30;;
84315;SDS011;74496;52.236;5.164;2024-01-15T06:50:46;4.63;;;1.20;;
84315;SDS011;74496;52.236;5.164;2024-01-15T06:53:13;6.05;;;1.23;;
84315;SDS011;74496;52.236;5.164;2024-01-15T06:55:40;7.38;;;1.40;;
84315;SDS011;74496;52.236;5.164;2024-01-15T06:58:08;3.53;;;1.30;;
84315;SDS011;74496;52.236;5.164;2024-01-15T07:00:35;4.15;;;0.95;;
84315;SDS011;74496;52.236;5.164;2024-01-15T07:03:03;6.95;;;1.30;;
84315;SDS011;74496;52.236;5.164;2024-01-15T07:05:32;4.88;;;1.90;;
84315;SDS011;74496;52.236;5.164;2024-01-15T07:07:59;3.20;;;1.52;;
84315;SDS011;74496;52.236;5.164;2024-01-15T07:10:25;2.35;;;1.50;;
84315;SDS011;74496;52.236;5.164;2024-01-15T07:12:52;7.80;;;1.40;;
84315;SDS011;74496;52.236;5.164;2024-01-15T07:15:21;5.47;;;2.63;;
84315;SDS011;74496;52.236;5.164;2024-01-15T07:17:47;6.05;;;2.60;;
84315;SDS011;74496;52.236;5.164;2024-01-15T07:20:14;5.90;;;2.60;;
84315;SDS011;74496;52.236;5.164;2024-01-15T07:22:42;6.25;;;3.05;;
84315;SDS011;74496;52.236;5.164;2024-01-15T07:25:09;11.63;;;3.20;;
84315;SDS011;74496;52.236;5.164;2024-01-15T07:27:36;3.10;;;1.98;;
84315;SDS011;74496;52.236;5.164;2024-01-15T07:30:02;3.88;;;1.60;;
84315;SDS011;74496;52.236;5.164;2024-01-15T07:32:33;6.15;;;1.50;;
84315;SDS011;74496;52.236;5.164;2024-01-15T07:34:59;4.28;;;1.33;;
84315;SDS011;74496;52.236;5.164;2024-01-15T07:37:26;4.00;;;1.33;;
84315;SDS011;74496;52.236;5.164;2024-01-15T07:39:53;4.43;;;1.35;;
84315;SDS011;74496;52.236;5.164;2024-01-15T07:42:20;3.30;;;1.05;;
84315;SDS011;74496;52.236;5.164;2024-01-15T07:44:47;4.18;;;1.20;;
84315;SDS011;74496;52.236;5.164;2024-01-15T07:47:13;2.20;;;1.02;;
84315;SDS011;74496;52.236;5.164;2024-01-15T07:49:41;1.63;;;1.10;;
84315;SDS011;74496;52.236;5.164;2024-01-15T07:52:08;4.32;;;1.98;;
84315;SDS011;74496;52.236;5.164;2024-01-15T07:54:35;5.80;;;1.48;;
84315;SDS011;74496;52.236;5.164;2024-01-15T07:57:02;2.97;;;1.25;;
84315;SDS011;74496;52.236;5.164;2024-01-15T07:59:29;3.17;;;1.75;;
84315;SDS011;74496;52.236;5.164;2024-01-15T08:01:59;8.43;;;2.30;;
84315;SDS011;74496;52.236;5.164;2024-01-15T08:04:26;8.07;;;2.15;;
84315;SDS011;74496;52.236;5.164;2024-01-15T08:06:54;7.10;;;2.30;;
84315;SDS011;74496;52.236;5.164;2024-01-15T08:09:22;3.97;;;1.52;;
84315;SDS011;74496;52.236;5.164;2024-01-15T08:11:49;4.75;;;1.00;;
84315;SDS011;74496;52.236;5.164;2024-01-15T08:14:15;6.57;;;1.17;;
84315;SDS011;74496;52.236;5.164;2024-01-15T08:16:44;5.65;;;1.17;;
84315;SDS011;74496;52.236;5.164;2024-01-15T08:19:11;5.85;;;1.20;;
84315;SDS011;74496;52.236;5.164;2024-01-15T08:21:37;2.78;;;0.93;;
84315;SDS011;74496;52.236;5.164;2024-01-15T08:24:06;2.72;;;0.88;;
84315;SDS011;74496;52.236;5.164;2024-01-15T08:26:33;4.15;;;1.05;;
84315;SDS011;74496;52.236;5.164;2024-01-15T08:28:59;5.22;;;1.00;;
84315;SDS011;74496;52.236;5.164;2024-01-15T08:31:26;3.20;;;1.02;;
84315;SDS011;74496;52.236;5.164;2024-01-15T08:33:53;5.25;;;1.30;;
84315;SDS011;74496;52.236;5.164;2024-01-15T08:36:21;5.50;;;1.10;;
84315;SDS011;74496;52.236;5.164;2024-01-15T08:38:47;5.85;;;1.42;;
84315;SDS011;74496;52.236;5.164;2024-01-15T08:41:15;3.55;;;1.00;;
84315;SDS011;74496;52.236;5.164;2024-01-15T08:43:42;4.80;;;0.93;;
84315;SDS011;74496;52.236;5.164;2024-01-15T08:46:09;6.15;;;1.33;;
84315;SDS011;74496;52.236;5.164;2024-01-15T08:48:35;5.80;;;1.25;;
84315;SDS011;74496;52.236;5.164;2024-01-15T08:51:02;6.40;;;1.27;;
84315;SDS011;74496;52.236;5.164;2024-01-15T08:53:29;6.38;;;1.30;;
84315;SDS011;74496;52.236;5.164;2024-01-15T08:55:56;8.68;;;1.10;;
84315;SDS011;74496;52.236;5.164;2024-01-15T08:58:24;8.95;;;1.10;;
84315;SDS011;74496;52.236;5.164;2024-01-15T09:00:50;5.75;;;1.20;;
84315;SDS011;74496;52.236;5.164;2024-01-15T09:03:17;9.00;;;1.30;;
84315;SDS011;74496;52.236;5.164;2024-01-15T09:05:44;10.98;;;1.45;;
84315;SDS011;74496;52.236;5.164;2024-01-15T09:08:11;9.70;;;1.40;;
84315;SDS011;74496;52.236;5.164;2024-01-15T09:10:38;9.82;;;1.50;;
84315;SDS011;74496;52.236;5.164;2024-01-15T09:13:04;10.75;;;2.20;;
84315;SDS011;74496;52.236;5.164;2024-01-15T09:15:32;7.95;;;1.63;;
84315;SDS011;74496;52.236;5.164;2024-01-15T09:17:59;4.93;;;1.58;;
84315;SDS011;74496;52.236;5.164;2024-01-15T09:20:27;5.95;;;1.02;;
84315;SDS011;74496;52.236;5.164;2024-01-15T09:22:54;7.00;;;1.10;;
84315;SDS011;74496;52.236;5.164;2024-01-15T09:25:20;5.15;;;1.38;;
84315;SDS011;74496;52.236;5.164;2024-01-15T09:27:47;4.97;;;1.30;;
84315;SDS011;74496;52.236;5.164;2024-01-15T09:30:14;6.10;;;1.60;;
84315;SDS011;74496;52.236;5.164;2024-01-15T09:32:42;10.35;;;1.33;;
84315;SDS011;74496;52.236;5.164;2024-01-15T09:35:09;8.50;;;1.25;;
84315;SDS011;74496;52.236;5.164;2024-01-15T09:37:36;3.60;;;1.40;;
84315;SDS011;74496;52.236;5.164;2024-01-15T09:40:06;3.03;;;1.20;;
84315;SDS011;74496;52.236;5.164;2024-01-15T09:42:34;4.82;;;1.15;;
84315;SDS011;74496;52.236;5.164;2024-01-15T09:45:02;9.18;;;1.48;;
84315;SDS011;74496;52.236;5.164;2024-01-15T09:47:29;10.65;;;1.45;;
84315;SDS011;74496;52.236;5.164;2024-01-15T09:49:58;5.63;;;1.40;;
84315;SDS011;74496;52.236;5.164;2024-01-15T09:52:25;7.10;;;1.63;;
84315;SDS011;74496;52.236;5.164;2024-01-15T09:54:51;9.60;;;1.30;;
84315;SDS011;74496;52.236;5.164;2024-01-15T09:57:18;7.97;;;1.52;;
84315;SDS011;74496;52.236;5.164;2024-01-15T09:59:45;7.05;;;1.70;;
84315;SDS011;74496;52.236;5.164;2024-01-15T10:02:13;5.95;;;1.40;;
84315;SDS011;74496;52.236;5.164;2024-01-15T10:04:43;8.95;;;1.38;;
84315;SDS011;74496;52.236;5.164;2024-01-15T10:07:12;10.07;;;1.50;;
84315;SDS011;74496;52.236;5.164;2024-01-15T10:09:44;11.52;;;1.88;;
84315;SDS011;74496;52.236;5.164;2024-01-15T10:12:11;7.43;;;1.48;;
84315;SDS011;74496;52.236;5.164;2024-01-15T10:14:38;8.32;;;2.05;;
84315;SDS011;74496;52.236;5.164;2024-01-15T10:17:11;4.47;;;1.63;;
84315;SDS011;74496;52.236;5.164;2024-01-15T10:19:38;12.30;;;4.65;;
84315;SDS011;74496;52.236;5.164;2024-01-15T10:22:06;16.27;;;3.95;;
84315;SDS011;74496;52.236;5.164;2024-01-15T10:24:35;15.52;;;3.70;;
84315;SDS011;74496;52.236;5.164;2024-01-15T10:27:05;13.02;;;4.38;;
84315;SDS011;74496;52.236;5.164;2024-01-15T10:29:33;11.50;;;3.80;;
84315;SDS011;74496;52.236;5.164;2024-01-15T10:32:00;15.52;;;2.60;;
84315;SDS011;74496;52.236;5.164;2024-01-15T10:34:27;3.85;;;1.30;;
84315;SDS011;74496;52.236;5.164;2024-01-15T10:36:54;5.78;;;1.60;;
84315;SDS011;74496;52.236;5.164;2024-01-15T10:39:21;5.22;;;1.48;;
84315;SDS011;74496;52.236;5.164;2024-01-15T10:41:50;6.22;;;1.83;;
84315;SDS011;74496;52.236;5.164;2024-01-15T10:44:17;8.00;;;1.95;;
84315;SDS011;74496;52.236;5.164;2024-01-15T10:46:43;7.22;;;1.92;;
84315;SDS011;74496;52.236;5.164;2024-01-15T10:49:12;7.82;;;1.70;;
84315;SDS011;74496;52.236;5.164;2024-01-15T10:51:39;10.73;;;1.45;;
84315;SDS011;74496;52.236;5.164;2024-01-15T10:54:08;4.55;;;1.10;;
84315;SDS011;74496;52.236;5.164;2024-01-15T10:56:36;2.88;;;0.70;;
84315;SDS011;74496;52.236;5.164;2024-01-15T10:59:04;1.58;;;0.90;;
84315;SDS011;74496;52.236;5.164;2024-01-15T11:01:32;1.58;;;0.80;;
84315;SDS011;74496;52.236;5.164;2024-01-15T11:03:59;1.17;;;0.57;;
84315;SDS011;74496;52.236;5.164;2024-01-15T11:06:27;2.80;;;0.85;;
84315;SDS011;74496;52.236;5.164;2024-01-15T11:08:54;1.77;;;0.75;;
84315;SDS011;74496;52.236;5.164;2024-01-15T11:11:21;2.95;;;0.60;;
84315;SDS011;74496;52.236;5.164;2024-01-15T11:13:48;1.02;;;0.70;;
84315;SDS011;74496;52.236;5.164;2024-01-15T11:16:18;2.50;;;0.65;;
84315;SDS011;74496;52.236;5.164;2024-01-15T11:21:31;2.42;;;0.70;;
84315;SDS011;74496;52.236;5.164;2024-01-15T11:23:58;4.63;;;0.75;;
84315;SDS011;74496;52.236;5.164;2024-01-15T11:26:32;2.67;;;0.80;;
84315;SDS011;74496;52.236;5.164;2024-01-15T11:29:01;2.65;;;0.75;;
84315;SDS011;74496;52.236;5.164;2024-01-15T11:37:18;2.40;;;0.90;;
84315;SDS011;74496;52.236;5.164;2024-01-15T11:39:45;4.53;;;0.70;;
84315;SDS011;74496;52.236;5.164;2024-01-15T11:42:13;3.72;;;1.00;;
84315;SDS011;74496;52.236;5.164;2024-01-15T11:44:41;2.97;;;1.25;;
84315;SDS011;74496;52.236;5.164;2024-01-15T11:47:09;6.38;;;1.17;;
84315;SDS011;74496;52.236;5.164;2024-01-15T11:52:32;8.90;;;2.20;;
84315;SDS011;74496;52.236;5.164;2024-01-15T11:55:01;2.05;;;0.95;;
84315;SDS011;74496;52.236;5.164;2024-01-15T11:57:37;6.03;;;1.67;;
84315;SDS011;74496;52.236;5.164;2024-01-15T12:00:08;4.88;;;1.23;;
84315;SDS011;74496;52.236;5.164;2024-01-15T12:02:41;3.75;;;0.90;;
84315;SDS011;74496;52.236;5.164;2024-01-15T12:05:08;8.25;;;1.52;;
84315;SDS011;74496;52.236;5.164;2024-01-15T12:07:39;10.02;;;2.00;;
84315;SDS011;74496;52.236;5.164;2024-01-15T12:10:09;2.83;;;1.00;;
84315;SDS011;74496;52.236;5.164;2024-01-15T12:12:44;3.67;;;1.13;;
84315;SDS011;74496;52.236;5.164;2024-01-15T12:15:20;5.97;;;1.48;;
84315;SDS011;74496;52.236;5.164;2024-01-15T12:17:48;4.38;;;1.02;;
84315;SDS011;74496;52.236;5.164;2024-01-15T12:20:15;7.07;;;1.25;;
84315;SDS011;74496;52.236;5.164;2024-01-15T12:22:43;4.10;;;1.00;;
84315;SDS011;74496;52.236;5.164;2024-01-15T12:25:11;2.00;;;1.10;;
84315;SDS011;74496;52.236;5.164;2024-01-15T12:27:37;3.65;;;1.08;;
84315;SDS011;74496;52.236;5.164;2024-01-15T12:30:05;3.90;;;1.20;;
84315;SDS011;74496;52.236;5.164;2024-01-15T12:32:34;5.28;;;1.02;;
84315;SDS011;74496;52.236;5.164;2024-01-15T12:35:02;5.47;;;1.00;;
84315;SDS011;74496;52.236;5.164;2024-01-15T12:37:30;4.88;;;1.00;;
84315;SDS011;74496;52.236;5.164;2024-01-15T12:39:56;6.20;;;1.33;;
84315;SDS011;74496;52.236;5.164;2024-01-15T12:42:25;3.83;;;1.10;;
84315;SDS011;74496;52.236;5.164;2024-01-15T12:44:51;3.25;;;1.27;;
84315;SDS011;74496;52.236;5.164;2024-01-15T12:47:21;3.83;;;1.23;;
84315;SDS011;74496;52.236;5.164;2024-01-15T12:49:47;5.68;;;1.38;;
84315;SDS011;74496;52.236;5.164;2024-01-15T12:52:20;3.80;;;1.08;;
84315;SDS011;74496;52.236;5.164;2024-01-15T12:54:47;4.55;;;1.02;;
84315;SDS011;74496;52.236;5.164;2024-01-15T12:57:14;3.70;;;1.02;;
84315;SDS011;74496;52.236;5.164;2024-01-15T12:59:40;5.30;;;1.17;;
84315;SDS011;74496;52.236;5.164;2024-01-15T13:02:07;5.63;;;1.20;;
84315;SDS011;74496;52.236;5.164;2024-01-15T13:04:34;5.75;;;1.10;;
84315;SDS011;74496;52.236;5.164;2024-01-15T13:07:00;3.28;;;1.58;;
84315;SDS011;74496;52.236;5.164;2024-01-15T13:09:29;1.40;;;1.08;;
84315;SDS011;74496;52.236;5.164;2024-01-15T13:11:55;7.57;;;1.40;;
84315;SDS011;74496;52.236;5.164;2024-01-15T13:14:23;3.80;;;1.30;;
84315;SDS011;74496;52.236;5.164;2024-01-15T13:16:50;5.72;;;1.50;;
84315;SDS011;74496;52.236;5.164;2024-01-15T13:19:16;4.03;;;1.35;;
84315;SDS011;74496;52.236;5.164;2024-01-15T13:21:44;6.22;;;1.50;;
84315;SDS011;74496;52.236;5.164;2024-01-15T13:24:10;11.80;;;1.90;;
84315;SDS011;74496;52.236;5.164;2024-01-15T13:26:38;8.07;;;1.85;;
84315;SDS011;74496;52.236;5.164;2024-01-15T13:29:05;11.10;;;2.00;;
84315;SDS011;74496;52.236;5.164;2024-01-15T13:31:34;6.25;;;1.70;;
84315;SDS011;74496;52.236;5.164;2024-01-15T13:34:01;6.95;;;1.48;;
84315;SDS011;74496;52.236;5.164;2024-01-15T13:36:28;9.37;;;1.50;;
84315;SDS011;74496;52.236;5.164;2024-01-15T13:38:55;5.43;;;1.20;;
84315;SDS011;74496;52.236;5.164;2024-01-15T13:41:22;3.70;;;1.33;;
84315;SDS011;74496;52.236;5.164;2024-01-15T13:43:53;5.65;;;1.08;;
84315;SDS011;74496;52.236;5.164;2024-01-15T13:46:23;5.28;;;1.30;;
84315;SDS011;74496;52.236;5.164;2024-01-15T13:48:51;3.28;;;1.00;;
84315;SDS011;74496;52.236;5.164;2024-01-15T13:51:18;8.90;;;1.75;;
84315;SDS011;74496;52.236;5.164;2024-01-15T13:53:45;7.80;;;1.40;;
84315;SDS011;74496;52.236;5.164;2024-01-15T13:56:11;6.22;;;1.50;;
84315;SDS011;74496;52.236;5.164;2024-01-15T13:58:38;7.25;;;1.30;;
84315;SDS011;74496;52.236;5.164;2024-01-15T14:01:06;9.93;;;1.40;;
84315;SDS011;74496;52.236;5.164;2024-01-15T14:03:33;6.35;;;1.52;;
84315;SDS011;74496;52.236;5.164;2024-01-15T14:06:00;11.70;;;1.80;;
84315;SDS011;74496;52.236;5.164;2024-01-15T14:08:28;11.23;;;1.70;;
84315;SDS011;74496;52.236;5.164;2024-01-15T14:10:54;7.47;;;1.27;;
84315;SDS011;74496;52.236;5.164;2024-01-15T14:13:22;6.70;;;1.77;;
84315;SDS011;74496;52.236;5.164;2024-01-15T14:15:49;14.57;;;1.83;;
84315;SDS011;74496;52.236;5.164;2024-01-15T14:18:17;7.40;;;1.50;;
84315;SDS011;74496;52.236;5.164;2024-01-15T14:20:44;14.00;;;1.83;;
84315;SDS011;74496;52.236;5.164;2024-01-15T14:23:11;10.10;;;1.80;;
84315;SDS011;74496;52.236;5.164;2024-01-15T14:25:39;12.10;;;2.00;;
84315;SDS011;74496;52.236;5.164;2024-01-15T14:28:06;12.25;;;2.03;;
84315;SDS011;74496;52.236;5.164;2024-01-15T14:30:32;9.90;;;1.70;;
84315;SDS011;74496;52.236;5.164;2024-01-15T14:32:59;11.90;;;2.10;;
84315;SDS011;74496;52.236;5.164;2024-01-15T14:35:27;13.57;;;1.83;;
84315;SDS011;74496;52.236;5.164;2024-01-15T14:37:54;11.70;;;2.03;;
84315;SDS011;74496;52.236;5.164;2024-01-15T14:40:22;11.70;;;2.08;;
84315;SDS011;74496;52.236;5.164;2024-01-15T14:42:49;11.60;;;2.30;;
84315;SDS011;74496;52.236;5.164;2024-01-15T14:45:17;11.70;;;3.15;;
84315;SDS011;74496;52.236;5.164;2024-01-15T14:47:44;13.68;;;3.38;;
84315;SDS011;74496;52.236;5.164;2024-01-15T14:50:10;25.20;;;9.73;;
84315;SDS011;74496;52.236;5.164;2024-01-15T14:52:39;13.52;;;3.85;;
84315;SDS011;74496;52.236;5.164;2024-01-15T14:55:07;15.68;;;2.13;;
84315;SDS011;74496;52.236;5.164;2024-01-15T14:57:35;9.18;;;1.98;;